Time;durP1;ratioP1;P1;durP2;ratioP2;P2;SDS_P1;SDS_P2;PMS_P1;PMS_P2;Temp;Humidity;BMP_temperature;BMP_pressure;BME280_temperature;BME280_humidity;BME280_pressure;Samples;Min_cycle;Max_cycle;Signal;HPM_P1;HPM_P2
2021/08/23 00:01:57;;;;;;;5.13;4.63;;;18.60;85.90;;;;;;4981393;28;20027;-76
2021/08/23 00:04:23;;;;;;;5.88;5.07;;;18.60;85.80;;;;;;4991951;28;20042;-77
2021/08/23 00:06:48;;;;;;;5.68;5.00;;;18.60;85.70;;;;;;4980373;28;20032;-76
2021/08/23 00:09:14;;;;;;;5.55;4.32;;;18.60;85.70;;;;;;4988090;28;20032;-76
2021/08/23 00:11:39;;;;;;;7.03;5.10;;;18.50;85.60;;;;;;4989911;28;20425;-77
2021/08/23 00:14:05;;;;;;;4.45;3.78;;;18.50;85.70;;;;;;4982818;28;20129;-77
2021/08/23 00:16:30;;;;;;;5.75;4.35;;;18.60;85.60;;;;;;4988774;28;20031;-77
2021/08/23 00:18:56;;;;;;;5.88;5.25;;;18.60;85.60;;;;;;4989565;28;20041;-77
2021/08/23 00:21:24;;;;;;;6.30;5.40;;;18.50;85.50;;;;;;4975558;28;20038;-77
2021/08/23 00:23:52;;;;;;;5.90;5.28;;;18.50;85.50;;;;;;4991182;28;20497;-76
2021/08/23 00:26:18;;;;;;;5.68;5.07;;;18.50;85.50;;;;;;4985166;28;20472;-77
2021/08/23 00:28:43;;;;;;;5.72;4.88;;;18.50;85.60;;;;;;4988157;28;20022;-77
2021/08/23 00:31:09;;;;;;;6.60;5.93;;;18.40;85.60;;;;;;4986012;28;20088;-78
2021/08/23 00:33:35;;;;;;;5.75;5.15;;;18.40;85.60;;;;;;4989090;28;20042;-77
2021/08/23 00:36:00;;;;;;;5.97;5.07;;;18.40;85.70;;;;;;4976876;28;20113;-77
2021/08/23 00:38:26;;;;;;;5.22;4.72;;;18.40;85.70;;;;;;4991024;28;20145;-78
2021/08/23 00:40:51;;;;;;;5.22;4.25;;;18.40;85.60;;;;;;4986674;28;20030;-77
2021/08/23 00:43:17;;;;;;;5.28;4.57;;;18.50;85.60;;;;;;4985557;28;20042;-77
2021/08/23 00:45:42;;;;;;;5.07;4.57;;;18.50;85.50;;;;;;4983658;28;20031;-77
2021/08/23 00:48:09;;;;;;;5.75;4.45;;;18.50;85.40;;;;;;4981684;28;20038;-77
2021/08/23 00:50:35;;;;;;;7.40;6.70;;;18.50;85.30;;;;;;4991008;28;20037;-77
2021/08/23 00:53:03;;;;;;;6.95;6.13;;;18.50;85.40;;;;;;4987429;28;20030;-77
2021/08/23 00:55:31;;;;;;;6.10;5.35;;;18.50;85.40;;;;;;4982859;28;20030;-77
2021/08/23 00:57:57;;;;;;;6.65;5.93;;;18.50;85.50;;;;;;4987602;28;20482;-77
2021/08/23 01:00:23;;;;;;;7.03;6.22;;;18.40;85.40;;;;;;4982564;28;20057;-77
2021/08/23 01:03:03;;;;;;;6.63;5.75;;;18.40;85.50;;;;;;4990833;28;20054;-77
2021/08/23 01:05:33;;;;;;;5.80;5.15;;;18.40;85.60;;;;;;4988166;28;20104;-77
2021/08/23 01:08:30;;;;;;;7.20;6.50;;;18.40;85.60;;;;;;4981788;28;20038;-76
2021/08/23 01:10:59;;;;;;;7.03;6.32;;;18.40;86.20;;;;;;4984014;28;20034;-78
2021/08/23 01:13:27;;;;;;;8.35;6.00;;;18.40;85.70;;;;;;4977546;28;20073;-75
2021/08/23 01:15:53;;;;;;;7.43;6.05;;;18.40;85.70;;;;;;4982314;28;20026;-77
2021/08/23 01:18:18;;;;;;;6.47;5.78;;;18.40;85.80;;;;;;4985955;28;20113;-75
2021/08/23 01:20:45;;;;;;;7.03;6.22;;;18.40;85.90;;;;;;4980353;28;20465;-75
2021/08/23 01:23:12;;;;;;;8.45;7.65;;;18.40;85.90;;;;;;4986086;28;20077;-77
2021/08/23 01:25:39;;;;;;;7.57;6.88;;;18.40;86.30;;;;;;4981712;28;20453;-75
2021/08/23 01:28:23;;;;;;;7.82;6.53;;;18.40;86.30;;;;;;4985147;28;20026;-76
2021/08/23 01:31:06;;;;;;;7.63;6.68;;;18.30;86.50;;;;;;4985011;28;20067;-76
2021/08/23 01:33:32;;;;;;;5.97;5.30;;;18.40;86.50;;;;;;4988674;28;20447;-76
2021/08/23 01:36:01;;;;;;;8.75;6.85;;;18.40;86.60;;;;;;4986981;28;20113;-76
2021/08/23 01:38:27;;;;;;;9.50;7.63;;;18.30;86.60;;;;;;4987588;28;20030;-76
2021/08/23 01:41:00;;;;;;;8.65;7.43;;;18.30;86.60;;;;;;4988855;28;20069;-76
2021/08/23 01:43:26;;;;;;;8.35;6.95;;;18.30;86.70;;;;;;4998321;28;20039;-76
2021/08/23 01:45:51;;;;;;;6.72;6.03;;;18.30;86.70;;;;;;4988876;28;20030;-76
2021/08/23 01:48:17;;;;;;;7.90;6.38;;;18.30;86.70;;;;;;4981426;28;20022;-75
2021/08/23 01:50:42;;;;;;;8.20;6.43;;;18.30;86.70;;;;;;4989920;28;20031;-75
2021/08/23 01:53:08;;;;;;;13.13;8.88;;;18.40;86.80;;;;;;4989154;28;20026;-76
2021/08/23 01:55:33;;;;;;;10.00;7.28;;;18.40;86.80;;;;;;4989246;28;20030;-75
2021/08/23 01:57:59;;;;;;;8.98;6.53;;;18.40;86.80;;;;;;4989736;28;20015;-75
2021/08/23 02:00:24;;;;;;;11.65;7.85;;;18.40;86.70;;;;;;4983574;28;20401;-76
2021/08/23 02:02:50;;;;;;;10.27;7.97;;;18.40;86.70;;;;;;4990264;28;20023;-76
2021/08/23 02:05:15;;;;;;;8.35;6.43;;;18.40;86.80;;;;;;4981446;28;20043;-76
2021/08/23 02:07:41;;;;;;;9.70;8.13;;;18.40;86.80;;;;;;4981814;28;20038;-76
2021/08/23 02:10:06;;;;;;;10.57;8.93;;;18.40;86.90;;;;;;4984765;28;20022;-76
2021/08/23 02:12:32;;;;;;;14.90;11.38;;;18.40;86.90;;;;;;4985452;28;20034;-76
2021/08/23 02:14:57;;;;;;;10.45;8.70;;;18.40;87.10;;;;;;4987398;28;20381;-76
2021/08/23 02:17:23;;;;;;;11.38;9.18;;;18.40;87.20;;;;;;4983020;28;20145;-76
2021/08/23 02:19:48;;;;;;;9.90;7.72;;;18.40;87.20;;;;;;4991377;28;20042;-77
2021/08/23 02:22:14;;;;;;;9.02;6.90;;;18.40;87.20;;;;;;4985807;28;20030;-77
2021/08/23 02:24:39;;;;;;;11.82;10.10;;;18.40;87.20;;;;;;4989475;28;20038;-76
2021/08/23 02:27:05;;;;;;;12.60;9.30;;;18.40;87.20;;;;;;4983703;28;20018;-77
2021/08/23 02:29:31;;;;;;;10.60;8.23;;;18.40;87.30;;;;;;4984842;28;20035;-77
2021/08/23 02:31:56;;;;;;;9.45;7.85;;;18.40;87.20;;;;;;4988805;28;20105;-76
2021/08/23 02:34:22;;;;;;;10.00;8.00;;;18.40;87.20;;;;;;4992060;28;20065;-76
2021/08/23 02:36:47;;;;;;;9.32;6.97;;;18.40;87.20;;;;;;4981562;28;20113;-76
2021/08/23 02:39:13;;;;;;;6.70;5.50;;;18.50;87.20;;;;;;4996830;28;20389;-76
2021/08/23 02:41:39;;;;;;;7.13;6.03;;;18.50;87.10;;;;;;4985719;28;20482;-77
2021/08/23 02:44:04;;;;;;;8.38;7.22;;;18.50;87.10;;;;;;4981754;28;20077;-76
2021/08/23 02:46:30;;;;;;;9.57;7.97;;;18.50;87.10;;;;;;4990322;28;20038;-77
2021/08/23 02:48:56;;;;;;;7.85;6.32;;;18.50;87.20;;;;;;4980851;28;20478;-77
2021/08/23 02:51:21;;;;;;;6.57;5.68;;;18.40;87.20;;;;;;4992501;28;20492;-77
2021/08/23 02:53:47;;;;;;;7.30;5.85;;;18.40;87.20;;;;;;4989830;28;20019;-77
2021/08/23 02:56:12;;;;;;;6.90;5.97;;;18.40;87.20;;;;;;4985462;28;20034;-78
2021/08/23 02:58:38;;;;;;;6.88;5.88;;;18.40;87.20;;;;;;4990655;28;20451;-77
2021/08/23 03:01:03;;;;;;;6.78;5.05;;;18.40;87.30;;;;;;4986544;28;20023;-78
2021/08/23 03:03:29;;;;;;;7.57;6.00;;;18.40;87.30;;;;;;4993361;28;20659;-78
2021/08/23 03:05:54;;;;;;;6.13;4.90;;;18.30;87.30;;;;;;4985971;28;20026;-78
2021/08/23 03:08:20;;;;;;;5.53;4.57;;;18.30;87.40;;;;;;4988963;28;20385;-77
2021/08/23 03:10:45;;;;;;;7.55;6.32;;;18.30;87.40;;;;;;4987061;28;20034;-76
2021/08/23 03:13:11;;;;;;;11.35;9.30;;;18.30;87.50;;;;;;4991743;28;20085;-78
2021/08/23 03:15:36;;;;;;;11.10;8.00;;;18.30;87.60;;;;;;4988601;28;20034;-76
2021/08/23 03:18:02;;;;;;;11.05;8.98;;;18.20;87.60;;;;;;4983271;28;20457;-77
2021/08/23 03:20:27;;;;;;;12.65;9.02;;;18.20;87.60;;;;;;4984584;28;20580;-75
2021/08/23 03:22:53;;;;;;;10.90;8.60;;;18.20;87.50;;;;;;4989854;28;20482;-78
2021/08/23 03:25:18;;;;;;;10.07;7.40;;;18.20;87.60;;;;;;4983042;28;20402;-77
2021/08/23 03:27:44;;;;;;;13.30;10.27;;;18.20;88.30;;;;;;4987090;28;20045;-76
2021/08/23 03:30:11;;;;;;;14.75;11.23;;;18.20;87.60;;;;;;4991665;28;20030;-77
2021/08/23 03:32:37;;;;;;;13.55;10.02;;;18.10;87.60;;;;;;4988476;28;20116;-76
2021/08/23 03:35:04;;;;;;;12.75;9.52;;;18.10;87.80;;;;;;4984535;28;20120;-77
2021/08/23 03:37:29;;;;;;;12.82;9.15;;;18.10;87.80;;;;;;4986894;28;20224;-78
2021/08/23 03:39:55;;;;;;;11.88;8.85;;;18.10;87.90;;;;;;4985783;28;20118;-76
2021/08/23 03:42:20;;;;;;;10.93;7.65;;;18.00;87.70;;;;;;4986305;28;20029;-77
2021/08/23 03:44:46;;;;;;;13.07;9.40;;;18.10;87.80;;;;;;4986125;28;20509;-78
2021/08/23 03:47:11;;;;;;;15.10;10.48;;;18.10;87.80;;;;;;4992250;28;20057;-77
2021/08/23 03:49:37;;;;;;;16.50;11.02;;;18.10;87.80;;;;;;4985534;28;20041;-77
2021/08/23 03:52:03;;;;;;;12.80;9.57;;;18.10;87.80;;;;;;4989612;28;20084;-76
2021/08/23 03:54:29;;;;;;;12.80;9.23;;;18.10;87.90;;;;;;4986807;28;20026;-78
2021/08/23 03:56:55;;;;;;;16.45;12.90;;;18.10;87.80;;;;;;4982961;28;20037;-79
2021/08/23 03:59:20;;;;;;;11.20;8.38;;;18.00;87.70;;;;;;4983597;28;20027;-78
2021/08/23 04:01:46;;;;;;;16.58;12.55;;;18.00;87.60;;;;;;4987595;28;20014;-78
2021/08/23 04:04:11;;;;;;;13.73;9.95;;;18.00;87.70;;;;;;4980867;28;20117;-78
2021/08/23 04:06:44;;;;;;;11.75;8.75;;;18.00;87.70;;;;;;4988320;28;20027;-78
2021/08/23 04:09:10;;;;;;;12.70;9.30;;;18.00;87.50;;;;;;4990768;28;20093;-78
2021/08/23 04:11:35;;;;;;;12.70;9.63;;;18.00;87.50;;;;;;4986598;28;20061;-78
2021/08/23 04:14:01;;;;;;;11.50;8.90;;;18.00;87.60;;;;;;4986131;28;20042;-78
2021/08/23 04:16:27;;;;;;;13.60;9.98;;;18.00;87.50;;;;;;4987785;28;20027;-77
2021/08/23 04:18:52;;;;;;;13.77;10.55;;;17.90;87.30;;;;;;4978361;28;20038;-78
2021/08/23 04:21:18;;;;;;;11.50;8.88;;;18.00;87.30;;;;;;4986194;28;20077;-79
2021/08/23 04:23:43;;;;;;;11.43;8.82;;;18.00;87.40;;;;;;4997365;28;20034;-78
2021/08/23 04:26:09;;;;;;;16.08;10.85;;;18.00;87.40;;;;;;4987679;28;20786;-77
2021/08/23 04:28:34;;;;;;;12.55;8.65;;;17.90;87.30;;;;;;4986733;28;21928;-78
2021/08/23 04:31:00;;;;;;;14.90;10.65;;;17.90;87.40;;;;;;4988130;28;20042;-79
2021/08/23 04:33:25;;;;;;;13.82;10.38;;;17.80;87.90;;;;;;4989106;28;20019;-78
2021/08/23 04:35:51;;;;;;;12.65;8.48;;;17.80;87.70;;;;;;4986051;28;20732;-78
2021/08/23 04:38:16;;;;;;;8.95;6.70;;;17.80;87.70;;;;;;4988426;28;20076;-78
2021/08/23 04:40:42;;;;;;;13.30;9.93;;;17.80;87.80;;;;;;4983025;28;20030;-78
2021/08/23 04:43:07;;;;;;;11.63;8.80;;;17.70;87.70;;;;;;4984419;28;20092;-78
2021/08/23 04:45:34;;;;;;;11.63;8.18;;;17.70;87.70;;;;;;4981138;28;20054;-79
2021/08/23 04:47:59;;;;;;;12.57;8.90;;;17.70;87.70;;;;;;4989506;28;20501;-77
2021/08/23 04:50:25;;;;;;;11.57;7.93;;;17.70;87.70;;;;;;4984091;28;20030;-77
2021/08/23 04:52:50;;;;;;;12.05;8.50;;;17.60;87.80;;;;;;4988429;28;20030;-77
2021/08/23 04:55:17;;;;;;;11.15;7.22;;;17.60;87.80;;;;;;4986218;28;20025;-75
2021/08/23 04:57:44;;;;;;;12.13;8.18;;;17.50;87.90;;;;;;4980296;28;20030;-77
2021/08/23 05:00:11;;;;;;;11.70;8.35;;;17.60;87.80;;;;;;4990045;28;20029;-77
2021/08/23 05:02:37;;;;;;;9.27;6.53;;;17.60;87.70;;;;;;4986652;28;20023;-80
2021/08/23 05:05:03;;;;;;;13.43;9.85;;;17.60;87.70;;;;;;4989774;28;20047;-79
2021/08/23 05:07:29;;;;;;;14.00;9.15;;;17.50;87.60;;;;;;4977870;28;20108;-77
2021/08/23 05:09:54;;;;;;;12.23;7.88;;;17.50;87.80;;;;;;4971508;28;20093;-76
2021/08/23 05:12:19;;;;;;;10.73;7.55;;;17.40;87.80;;;;;;4982856;28;20078;-76
2021/08/23 05:14:45;;;;;;;13.13;8.50;;;17.40;87.80;;;;;;4988664;28;20031;-77
2021/08/23 05:17:10;;;;;;;12.48;8.38;;;17.40;87.70;;;;;;4976112;28;20031;-78
2021/08/23 05:19:36;;;;;;;11.50;8.00;;;17.50;87.70;;;;;;4975909;28;20033;-78
2021/08/23 05:22:02;;;;;;;10.95;7.05;;;17.50;87.70;;;;;;4987246;28;20030;-78
2021/08/23 05:24:27;;;;;;;10.55;7.07;;;17.50;87.60;;;;;;4986428;28;20549;-77
2021/08/23 05:26:53;;;;;;;10.77;7.68;;;17.50;87.60;;;;;;4977438;28;20059;-77
2021/08/23 05:29:18;;;;;;;9.60;6.53;;;17.50;87.60;;;;;;4988409;28;20396;-78
2021/08/23 05:31:44;;;;;;;9.32;6.88;;;17.50;87.50;;;;;;4981238;28;20049;-78
2021/08/23 05:34:09;;;;;;;11.63;8.25;;;17.60;87.40;;;;;;4982262;28;20030;-76
2021/08/23 05:36:35;;;;;;;10.27;6.65;;;17.60;87.30;;;;;;4977297;28;20027;-77
2021/08/23 05:39:00;;;;;;;9.48;7.57;;;17.60;87.40;;;;;;4984398;28;20038;-77
2021/08/23 05:41:26;;;;;;;11.18;8.32;;;17.60;87.30;;;;;;4985875;28;20031;-77
2021/08/23 05:43:51;;;;;;;9.63;8.10;;;17.60;87.30;;;;;;4982653;28;20037;-77
2021/08/23 05:46:23;;;;;;;9.73;6.90;;;17.60;87.30;;;;;;4983026;28;20031;-76
2021/08/23 05:48:49;;;;;;;9.93;7.60;;;17.60;87.20;;;;;;4987495;28;20050;-77
2021/08/23 05:51:18;;;;;;;9.48;7.80;;;17.60;87.10;;;;;;4986045;28;20424;-77
2021/08/23 05:53:44;;;;;;;8.50;6.45;;;17.70;87.10;;;;;;4983362;28;20039;-77
2021/08/23 05:56:10;;;;;;;8.75;7.30;;;17.70;87.00;;;;;;4989165;28;20250;-77
2021/08/23 05:58:36;;;;;;;10.45;8.52;;;17.70;86.80;;;;;;4988402;28;20492;-77
2021/08/23 06:01:03;;;;;;;9.30;7.30;;;17.60;86.70;;;;;;4985905;28;20101;-78
2021/08/23 06:03:28;;;;;;;9.98;8.15;;;17.70;86.70;;;;;;4988381;28;21889;-76
2021/08/23 06:05:54;;;;;;;11.32;8.85;;;17.70;86.60;;;;;;4989726;28;20093;-77
2021/08/23 06:08:19;;;;;;;10.77;8.88;;;17.70;86.60;;;;;;4986524;28;20028;-78
2021/08/23 06:10:46;;;;;;;10.32;8.52;;;17.70;86.50;;;;;;4985635;28;20027;-78
2021/08/23 06:13:11;;;;;;;9.70;7.32;;;17.70;86.50;;;;;;4988284;28;20085;-77
2021/08/23 06:15:37;;;;;;;9.82;8.00;;;17.70;86.50;;;;;;4987458;28;20713;-78
2021/08/23 06:18:02;;;;;;;8.73;7.28;;;17.70;86.50;;;;;;4986371;28;20039;-77
2021/08/23 06:20:28;;;;;;;7.80;6.15;;;17.70;86.50;;;;;;4985991;28;20030;-77
2021/08/23 06:22:53;;;;;;;8.27;6.82;;;17.70;86.50;;;;;;4989473;28;20073;-78
2021/08/23 06:25:19;;;;;;;8.38;6.28;;;17.70;86.60;;;;;;4988415;28;20038;-78
2021/08/23 06:27:45;;;;;;;8.07;6.47;;;17.70;86.50;;;;;;4988542;28;20073;-78
2021/08/23 06:30:11;;;;;;;9.50;6.45;;;17.80;86.50;;;;;;4986853;28;20030;-79
2021/08/23 06:32:37;;;;;;;11.23;7.82;;;17.80;86.40;;;;;;4990906;28;20046;-78
2021/08/23 06:35:03;;;;;;;9.45;6.63;;;17.80;86.30;;;;;;4986154;28;20488;-79
2021/08/23 06:37:30;;;;;;;9.23;7.30;;;17.90;86.20;;;;;;4986514;28;20022;-79
2021/08/23 06:39:57;;;;;;;9.45;7.15;;;17.90;86.10;;;;;;4987572;28;20533;-78
2021/08/23 06:42:22;;;;;;;7.50;5.90;;;18.00;86.10;;;;;;4986763;28;20022;-78
2021/08/23 06:44:48;;;;;;;10.88;8.02;;;18.00;86.00;;;;;;4983853;28;20102;-78
2021/08/23 06:47:13;;;;;;;8.43;6.78;;;18.10;85.90;;;;;;4990633;28;20037;-78
2021/08/23 06:49:39;;;;;;;9.30;6.72;;;18.10;85.70;;;;;;4990398;28;20481;-79
2021/08/23 06:52:05;;;;;;;8.27;5.82;;;18.20;85.60;;;;;;4989828;28;20429;-79
2021/08/23 06:54:31;;;;;;;8.27;6.10;;;18.70;85.40;;;;;;4986184;28;20042;-78
2021/08/23 06:56:56;;;;;;;6.85;5.53;;;19.50;83.70;;;;;;4987323;28;20069;-78
2021/08/23 06:59:25;;;;;;;8.38;6.22;;;20.50;81.00;;;;;;4988351;28;20030;-78
2021/08/23 07:01:50;;;;;;;7.60;5.53;;;21.40;78.00;;;;;;4987161;28;20049;-78
2021/08/23 07:04:16;;;;;;;6.43;5.00;;;21.70;76.00;;;;;;4987472;28;20031;-78
2021/08/23 07:06:41;;;;;;;7.70;5.78;;;22.40;74.20;;;;;;4988061;28;20077;-78
2021/08/23 07:09:07;;;;;;;8.50;5.47;;;23.00;72.30;;;;;;4991156;28;20480;-78
2021/08/23 07:11:32;;;;;;;6.60;4.60;;;22.50;71.90;;;;;;4991595;28;20030;-79
2021/08/23 07:13:58;;;;;;;5.35;4.35;;;22.00;73.20;;;;;;4991947;28;20122;-78
2021/08/23 07:16:23;;;;;;;5.18;3.80;;;22.50;73.10;;;;;;4984737;28;20034;-79
2021/08/23 07:18:49;;;;;;;5.90;4.38;;;22.90;71.70;;;;;;4989482;28;20397;-80
2021/08/23 07:21:15;;;;;;;4.65;3.35;;;22.60;71.70;;;;;;4983152;28;20504;-79
2021/08/23 07:23:40;;;;;;;5.15;3.75;;;22.10;72.50;;;;;;4984092;28;20045;-79
2021/08/23 07:26:06;;;;;;;6.97;4.40;;;21.50;74.00;;;;;;4988340;28;20034;-80
2021/08/23 07:28:31;;;;;;;3.97;3.13;;;21.10;75.20;;;;;;4987553;28;20022;-80
2021/08/23 07:30:57;;;;;;;5.90;3.40;;;20.80;76.40;;;;;;4986438;28;20026;-80
2021/08/23 07:33:23;;;;;;;4.80;3.17;;;20.50;77.20;;;;;;4988564;28;20105;-79
2021/08/23 07:35:48;;;;;;;4.95;4.05;;;20.30;77.70;;;;;;4988866;28;20121;-81
2021/08/23 07:38:14;;;;;;;5.03;3.70;;;20.10;78.40;;;;;;4997510;28;20026;-81
2021/08/23 07:40:40;;;;;;;7.38;4.95;;;19.90;78.80;;;;;;4989851;28;20160;-80
2021/08/23 07:43:05;;;;;;;3.33;2.72;;;19.70;79.00;;;;;;4985819;28;20018;-79
2021/08/23 07:45:31;;;;;;;5.80;3.50;;;19.50;79.40;;;;;;4983974;28;20053;-79
2021/08/23 07:47:56;;;;;;;4.82;3.47;;;19.40;79.90;;;;;;4983294;28;20015;-80
2021/08/23 07:50:22;;;;;;;6.50;4.38;;;19.40;80.00;;;;;;4984162;28;20481;-79
2021/08/23 07:52:47;;;;;;;5.97;4.25;;;19.30;80.10;;;;;;4987926;28;20055;-78
2021/08/23 07:55:13;;;;;;;5.68;4.03;;;19.30;80.30;;;;;;4982795;28;20030;-78
2021/08/23 07:57:44;;;;;;;6.90;4.25;;;19.40;80.10;;;;;;4986747;28;20116;-77
2021/08/23 08:00:11;;;;;;;5.80;4.05;;;19.40;80.10;;;;;;4983568;28;20026;-79
2021/08/23 08:02:37;;;;;;;6.10;3.92;;;19.30;80.10;;;;;;4984217;28;20026;-78
2021/08/23 08:05:03;;;;;;;6.65;3.70;;;19.20;80.30;;;;;;4981415;28;20038;-78
2021/08/23 08:07:28;;;;;;;4.97;3.55;;;19.20;80.50;;;;;;4986434;28;20026;-79
2021/08/23 08:09:54;;;;;;;4.60;3.25;;;19.20;80.60;;;;;;4981923;28;20536;-78
2021/08/23 08:12:19;;;;;;;5.82;3.35;;;19.20;80.80;;;;;;4986697;28;20046;-79
2021/08/23 08:14:45;;;;;;;5.15;2.95;;;19.20;80.90;;;;;;4985516;28;20041;-78
2021/08/23 08:17:10;;;;;;;4.57;3.08;;;19.30;80.80;;;;;;4984928;28;20389;-78
2021/08/23 08:19:36;;;;;;;4.72;3.70;;;19.40;80.60;;;;;;5005598;28;20024;-78
2021/08/23 08:22:05;;;;;;;5.55;3.35;;;19.40;80.30;;;;;;4992991;28;20482;-78
2021/08/23 08:24:31;;;;;;;4.38;3.38;;;19.60;80.00;;;;;;4992859;28;20030;-78
2021/08/23 08:26:57;;;;;;;3.22;2.28;;;20.00;79.00;;;;;;4989526;28;20559;-79
2021/08/23 08:29:22;;;;;;;6.05;3.38;;;20.20;78.30;;;;;;5007484;28;20026;-79
2021/08/23 08:31:48;;;;;;;3.67;2.58;;;20.20;77.90;;;;;;4982767;28;20030;-79
2021/08/23 08:34:13;;;;;;;5.50;3.15;;;20.80;77.20;;;;;;4987236;28;20034;-78
2021/08/23 08:36:40;;;;;;;5.90;3.50;;;20.80;76.30;;;;;;4986180;28;20729;-77
2021/08/23 08:39:05;;;;;;;5.53;3.50;;;20.70;75.90;;;;;;4987398;28;20062;-77
2021/08/23 08:41:32;;;;;;;4.30;2.47;;;20.40;75.80;;;;;;4984094;28;20076;-79
2021/08/23 08:44:00;;;;;;;3.97;2.35;;;20.40;76.50;;;;;;4984060;28;20069;-78
2021/08/23 08:46:25;;;;;;;4.20;2.60;;;20.70;76.40;;;;;;4989118;28;20077;-77
2021/08/23 08:48:51;;;;;;;3.45;2.00;;;20.70;75.90;;;;;;4991517;28;20030;-78
2021/08/23 08:51:18;;;;;;;3.20;2.40;;;20.80;75.80;;;;;;4991650;28;20049;-78
2021/08/23 08:53:44;;;;;;;4.32;2.28;;;20.90;75.30;;;;;;4980118;28;20494;-78
2021/08/23 08:56:09;;;;;;;4.13;2.30;;;21.00;75.40;;;;;;4979413;28;20054;-80
2021/08/23 08:58:36;;;;;;;3.58;2.05;;;21.00;75.10;;;;;;4980656;28;20019;-77
2021/08/23 09:01:04;;;;;;;5.68;2.67;;;20.90;74.90;;;;;;4986094;28;20106;-78
2021/08/23 09:03:30;;;;;;;2.67;2.00;;;20.80;75.00;;;;;;4989819;28;20026;-78
2021/08/23 09:06:05;;;;;;;3.55;2.30;;;20.80;74.90;;;;;;4982639;28;20116;-78
2021/08/23 09:08:46;;;;;;;4.78;2.33;;;20.70;74.60;;;;;;4979191;28;20034;-77
2021/08/23 09:11:13;;;;;;;2.35;1.73;;;20.60;74.60;;;;;;4987743;28;20034;-77
2021/08/23 09:13:41;;;;;;;2.40;1.70;;;20.60;74.90;;;;;;4979355;28;20097;-76
2021/08/23 09:16:08;;;;;;;2.85;2.10;;;20.70;75.00;;;;;;4988330;28;20038;-77
2021/08/23 09:18:34;;;;;;;5.25;2.10;;;20.80;74.50;;;;;;4986544;28;20497;-78
2021/08/23 09:21:05;;;;;;;5.68;2.70;;;20.80;74.50;;;;;;4987548;28;20026;-77
2021/08/23 09:23:41;;;;;;;3.00;2.13;;;20.80;74.20;;;;;;4994796;28;20026;-76
2021/08/23 09:26:13;;;;;;;3.60;2.40;;;20.70;74.30;;;;;;4985191;28;20037;-77
2021/08/23 09:28:40;;;;;;;4.13;2.93;;;20.60;74.20;;;;;;4986341;28;20485;-77
2021/08/23 09:31:10;;;;;;;3.50;2.35;;;20.60;74.20;;;;;;4990434;28;20459;-78
2021/08/23 09:33:46;;;;;;;3.92;2.35;;;20.50;74.50;;;;;;4983911;28;20037;-79
2021/08/23 09:36:18;;;;;;;3.80;2.50;;;20.70;74.60;;;;;;4990668;28;20038;-78
2021/08/23 09:38:54;;;;;;;3.20;2.20;;;20.80;74.40;;;;;;4988257;28;20105;-78
2021/08/23 09:41:23;;;;;;;2.97;2.20;;;21.00;74.30;;;;;;4986632;28;20613;-80
2021/08/23 09:44:07;;;;;;;3.03;2.30;;;21.20;73.70;;;;;;4986026;28;20108;-78
2021/08/23 09:46:34;;;;;;;3.80;2.05;;;21.30;73.00;;;;;;4984474;28;20050;-80
2021/08/23 09:49:03;;;;;;;2.13;1.60;;;21.30;72.70;;;;;;4995673;28;20031;-79
2021/08/23 09:51:31;;;;;;;3.05;1.83;;;21.40;72.70;;;;;;5000470;28;20033;-78
2021/08/23 09:54:26;;;;;;;4.10;2.20;;;21.40;72.40;;;;;;4990685;28;20023;-79
2021/08/23 09:56:53;;;;;;;3.25;1.63;;;21.40;72.20;;;;;;4978921;28;20057;-79
2021/08/23 09:59:27;;;;;;;2.72;1.90;;;21.40;72.30;;;;;;4993030;28;20021;-77
2021/08/23 10:01:55;;;;;;;3.92;2.00;;;21.30;72.00;;;;;;4989205;28;20056;-78
2021/08/23 10:04:21;;;;;;;3.00;1.85;;;21.30;72.00;;;;;;4986065;28;20125;-79
2021/08/23 10:06:49;;;;;;;3.40;2.30;;;21.30;71.70;;;;;;4987466;28;20023;-79
2021/08/23 10:09:20;;;;;;;3.03;1.90;;;21.40;71.70;;;;;;4989301;28;20048;-80
2021/08/23 10:11:46;;;;;;;3.10;1.60;;;21.50;71.50;;;;;;4989029;28;20597;-78
2021/08/23 10:14:12;;;;;;;3.13;2.10;;;21.60;71.40;;;;;;4987852;28;20036;-80
2021/08/23 10:16:38;;;;;;;2.28;1.80;;;21.70;71.20;;;;;;4988807;28;20535;-80
2021/08/23 10:19:05;;;;;;;3.30;2.17;;;21.70;70.70;;;;;;4987164;28;20038;-80
2021/08/23 10:21:31;;;;;;;3.38;2.30;;;21.80;70.50;;;;;;4984277;28;20426;-80
2021/08/23 10:23:58;;;;;;;2.70;2.00;;;21.80;69.70;;;;;;4989399;28;20130;-79
2021/08/23 10:26:24;;;;;;;3.35;1.95;;;21.90;69.70;;;;;;4984048;28;20061;-79
2021/08/23 10:28:51;;;;;;;3.30;1.67;;;22.00;69.30;;;;;;4985551;28;20462;-79
2021/08/23 10:31:19;;;;;;;2.50;1.98;;;22.20;69.20;;;;;;4982213;28;20085;-78
2021/08/23 10:33:47;;;;;;;2.75;1.52;;;22.40;68.70;;;;;;4982332;28;20049;-78
2021/08/23 10:36:18;;;;;;;3.10;1.70;;;22.50;68.30;;;;;;4982133;28;20027;-78
2021/08/23 10:38:47;;;;;;;2.00;1.70;;;22.60;68.50;;;;;;4985367;28;20023;-78
2021/08/23 10:41:26;;;;;;;2.97;1.65;;;22.80;68.20;;;;;;4989035;28;20277;-78
2021/08/23 10:43:56;;;;;;;2.13;1.65;;;23.00;67.90;;;;;;4979881;28;20557;-75
2021/08/23 10:46:36;;;;;;;2.90;1.90;;;23.00;67.40;;;;;;4985665;28;20551;-77
2021/08/23 10:49:11;;;;;;;2.38;1.80;;;23.00;67.20;;;;;;4988202;28;20034;-75
2021/08/23 10:51:41;;;;;;;2.95;1.70;;;23.00;67.00;;;;;;4982490;28;20035;-75
2021/08/23 10:54:28;;;;;;;4.55;1.65;;;22.90;66.80;;;;;;4984925;28;20026;-76
2021/08/23 10:57:00;;;;;;;3.75;1.70;;;22.80;67.10;;;;;;4980336;28;20064;-76
2021/08/23 10:59:36;;;;;;;3.45;1.70;;;22.80;66.50;;;;;;4981854;28;20031;-78
2021/08/23 11:02:02;;;;;;;3.63;1.63;;;22.80;65.90;;;;;;4985795;28;20076;-77
2021/08/23 11:04:31;;;;;;;3.13;1.60;;;22.70;65.10;;;;;;4982135;28;20038;-78
2021/08/23 11:06:57;;;;;;;1.42;1.20;;;22.80;64.20;;;;;;4981277;28;20054;-78
2021/08/23 11:09:40;;;;;;;1.45;1.00;;;22.90;64.30;;;;;;4987280;28;20052;-79
2021/08/23 11:12:17;;;;;;;2.22;1.35;;;23.00;64.10;;;;;;4987480;28;20322;-79
2021/08/23 11:14:51;;;;;;;2.38;1.35;;;23.00;63.20;;;;;;4984184;28;20015;-79
2021/08/23 11:17:33;;;;;;;2.03;1.50;;;23.10;62.90;;;;;;4987170;28;20084;-78
2021/08/23 11:20:07;;;;;;;1.80;1.42;;;23.10;62.80;;;;;;4980513;28;20022;-78
2021/08/23 11:22:33;;;;;;;1.45;1.10;;;23.30;62.80;;;;;;4986341;28;20026;-77
2021/08/23 11:24:59;;;;;;;2.38;1.10;;;23.50;63.00;;;;;;4987529;28;20038;-80
2021/08/23 11:27:25;;;;;;;2.92;1.60;;;23.60;62.80;;;;;;4991051;28;20022;-77
2021/08/23 11:29:53;;;;;;;2.42;1.33;;;23.60;62.10;;;;;;4982517;28;20478;-76
2021/08/23 11:32:24;;;;;;;3.20;1.35;;;23.50;62.50;;;;;;4983643;28;20054;-78
2021/08/23 11:34:51;;;;;;;1.42;1.10;;;23.60;62.70;;;;;;4989274;28;20026;-77
2021/08/23 11:37:20;;;;;;;3.83;1.60;;;23.60;62.70;;;;;;4983597;28;20091;-79
2021/08/23 11:39:46;;;;;;;2.47;1.30;;;23.50;62.20;;;;;;4986240;28;20030;-80
2021/08/23 11:42:11;;;;;;;2.70;1.30;;;23.50;62.70;;;;;;4978025;28;20031;-77
2021/08/23 11:44:38;;;;;;;2.80;1.67;;;23.40;63.10;;;;;;4982189;28;20038;-78
2021/08/23 11:47:05;;;;;;;3.30;1.60;;;23.50;62.10;;;;;;4983827;28;20027;-80
2021/08/23 11:49:33;;;;;;;3.13;1.40;;;23.40;62.80;;;;;;4989489;28;20081;-77
2021/08/23 11:52:12;;;;;;;2.50;1.60;;;23.50;62.40;;;;;;4998545;28;20032;-76
2021/08/23 11:54:48;;;;;;;2.80;1.60;;;23.60;62.40;;;;;;5000466;28;20033;-75
2021/08/23 11:57:18;;;;;;;1.98;1.23;;;23.60;61.30;;;;;;4996872;28;20034;-77
2021/08/23 11:59:58;;;;;;;3.65;1.50;;;23.60;61.80;;;;;;5002130;28;20046;-79
2021/08/23 12:02:37;;;;;;;1.58;1.27;;;23.50;62.00;;;;;;4996180;28;20072;-79
2021/08/23 12:05:11;;;;;;;1.75;1.20;;;23.40;62.10;;;;;;4998391;28;20065;-76
2021/08/23 12:07:47;;;;;;;2.53;1.50;;;23.40;62.40;;;;;;4984682;28;20031;-78
2021/08/23 12:10:28;;;;;;;3.40;1.48;;;23.40;62.10;;;;;;4989970;28;20014;-79
2021/08/23 12:13:18;;;;;;;2.22;1.38;;;23.40;62.20;;;;;;4997425;28;20044;-77
2021/08/23 12:15:55;;;;;;;3.38;1.40;;;23.70;62.40;;;;;;4990422;28;20097;-80
2021/08/23 12:18:46;;;;;;;1.85;1.30;;;23.90;62.00;;;;;;4998390;28;20064;-77
2021/08/23 12:21:27;;;;;;;2.08;1.45;;;23.80;61.30;;;;;;4991868;28;20385;-81
2021/08/23 12:24:14;;;;;;;2.25;1.20;;;23.80;61.60;;;;;;4980611;28;20039;-78
2021/08/23 12:27:00;;;;;;;2.10;1.52;;;24.00;61.60;;;;;;4987607;28;20391;-78
2021/08/23 12:29:36;;;;;;;3.05;1.25;;;24.20;60.40;;;;;;4988919;28;20145;-78
2021/08/23 12:32:07;;;;;;;3.42;1.40;;;24.30;60.00;;;;;;4989350;28;20045;-78
2021/08/23 12:34:44;;;;;;;1.85;1.23;;;24.30;59.70;;;;;;4978850;28;20058;-78
2021/08/23 12:37:11;;;;;;;1.52;1.20;;;24.20;59.80;;;;;;4990305;28;20026;-77
2021/08/23 12:39:37;;;;;;;2.28;1.20;;;24.30;60.20;;;;;;4988682;28;20058;-79
2021/08/23 12:42:10;;;;;;;1.58;1.27;;;24.40;60.30;;;;;;4990882;28;20056;-81
2021/08/23 12:44:37;;;;;;;4.15;1.30;;;24.30;59.90;;;;;;4987346;28;20038;-77
2021/08/23 12:47:03;;;;;;;1.95;1.10;;;24.30;60.30;;;;;;4990648;28;20054;-78